createdAt,value
2018-03-06T00:00:27.114Z,13.60
2018-03-06T00:02:55.696Z,13.20
2018-03-06T00:05:23.268Z,14.83
2018-03-06T00:07:50.984Z,12.60
2018-03-06T00:10:18.704Z,13.07
2018-03-06T00:12:46.988Z,12.53
2018-03-06T00:15:14.620Z,13.70
2018-03-06T00:17:42.302Z,13.97
2018-03-06T00:20:10.212Z,14.10
2018-03-06T00:22:38.184Z,14.47
2018-03-06T00:25:05.943Z,12.30
2018-03-06T00:27:33.642Z,13.68
2018-03-06T00:30:01.272Z,13.70
2018-03-06T00:32:28.931Z,12.77
2018-03-06T00:34:56.535Z,15.10
2018-03-06T00:37:24.392Z,13.93
2018-03-06T00:39:52.068Z,13.03
2018-03-06T00:42:19.944Z,13.80
2018-03-06T00:44:47.507Z,14.27
2018-03-06T00:47:15.287Z,14.60
2018-03-06T00:49:43.080Z,12.40
2018-03-06T00:52:11.083Z,12.40
2018-03-06T00:54:39.148Z,12.70
2018-03-06T00:57:07.068Z,14.33
2018-03-06T00:59:35.261Z,12.17
2018-03-06T01:02:02.980Z,13.70
2018-03-06T01:04:30.747Z,13.07
2018-03-06T01:06:58.334Z,12.75
2018-03-06T01:09:26.045Z,14.93
2018-03-06T01:11:53.632Z,14.43
2018-03-06T01:14:21.406Z,14.53
2018-03-06T01:16:49.690Z,14.50
2018-03-06T01:19:17.392Z,13.57
2018-03-06T01:21:45.227Z,13.30
2018-03-06T01:24:12.803Z,14.43
2018-03-06T01:26:40.601Z,15.63
2018-03-06T01:29:08.262Z,15.05
2018-03-06T01:31:35.968Z,12.63
2018-03-06T01:34:03.778Z,13.97
2018-03-06T01:36:31.605Z,13.30
2018-03-06T01:38:59.209Z,13.90
2018-03-06T01:41:27.549Z,13.00
2018-03-06T01:43:55.293Z,13.37
2018-03-06T01:46:23.172Z,14.37
2018-03-06T01:48:50.802Z,14.30
2018-03-06T01:51:18.444Z,14.13
2018-03-06T01:53:46.019Z,13.57
2018-03-06T01:56:13.568Z,14.20
2018-03-06T01:58:41.234Z,14.80
2018-03-06T02:01:09.036Z,14.90
2018-03-06T02:03:36.834Z,15.00
2018-03-06T02:06:05.298Z,17.37
2018-03-06T02:08:33.850Z,15.97
2018-03-06T02:11:02.509Z,14.50
2018-03-06T02:13:30.115Z,18.03
2018-03-06T02:15:58.658Z,18.20
2018-03-06T02:18:26.384Z,17.13
2018-03-06T02:20:54.057Z,19.52
2018-03-06T02:23:22.413Z,16.10
2018-03-06T02:25:50.178Z,18.37
2018-03-06T02:28:17.863Z,19.50
2018-03-06T02:30:45.574Z,17.43
2018-03-06T02:33:13.443Z,17.50
2018-03-06T02:35:41.099Z,17.50
2018-03-06T02:38:08.772Z,17.77
2018-03-06T02:40:36.513Z,17.97
2018-03-06T02:43:04.103Z,17.80
2018-03-06T02:45:31.778Z,16.50
2018-03-06T02:47:59.773Z,19.30
2018-03-06T02:50:28.158Z,19.20
2018-03-06T02:52:55.889Z,17.52
2018-03-06T02:55:23.560Z,18.87
2018-03-06T02:57:51.131Z,17.75
2018-03-06T03:00:18.877Z,20.40
2018-03-06T03:02:46.430Z,19.20
2018-03-06T03:05:14.323Z,19.23
2018-03-06T03:07:42.130Z,20.23
2018-03-06T03:10:09.755Z,20.60
2018-03-06T03:12:37.704Z,21.03
2018-03-06T03:15:05.296Z,19.27
2018-03-06T03:17:32.954Z,20.27
2018-03-06T03:20:00.774Z,20.03
2018-03-06T03:22:28.353Z,22.20
2018-03-06T03:24:56.432Z,19.70
2018-03-06T03:27:24.013Z,19.47
2018-03-06T03:29:51.762Z,20.83
2018-03-06T03:32:19.478Z,19.57
2018-03-06T03:34:47.277Z,20.20
2018-03-06T03:37:16.271Z,20.17
2018-03-06T03:39:44.014Z,20.03
2018-03-06T03:42:12.679Z,19.20
2018-03-06T03:44:40.247Z,20.20
2018-03-06T03:47:08.059Z,20.90
2018-03-06T03:49:35.766Z,19.80
2018-03-06T03:52:03.675Z,19.97
2018-03-06T03:54:31.249Z,20.77
2018-03-06T03:56:58.869Z,20.70
2018-03-06T03:59:26.558Z,21.23
2018-03-06T04:01:54.319Z,24.00
2018-03-06T04:04:22.558Z,22.73
2018-03-06T04:06:50.148Z,22.20
2018-03-06T04:09:17.924Z,22.48
2018-03-06T04:11:45.561Z,24.07
2018-03-06T04:14:13.423Z,20.17
2018-03-06T04:16:41.239Z,22.53
2018-03-06T04:19:08.849Z,22.00
2018-03-06T04:21:36.588Z,24.63
2018-03-06T04:24:04.204Z,22.83
2018-03-06T04:26:31.840Z,24.73
2018-03-06T04:28:59.417Z,22.97
2018-03-06T04:31:26.997Z,23.03
2018-03-06T04:33:54.978Z,22.27
2018-03-06T04:36:22.840Z,23.35
2018-03-06T04:38:50.709Z,23.03
2018-03-06T04:41:18.339Z,23.03
2018-03-06T04:43:46.029Z,24.77
2018-03-06T04:46:13.934Z,26.90
2018-03-06T04:48:41.702Z,25.27
2018-03-06T04:51:09.428Z,25.47
2018-03-06T04:53:37.329Z,24.77
2018-03-06T04:56:04.985Z,23.93
2018-03-06T04:58:32.552Z,24.73
2018-03-06T05:01:00.178Z,27.00
2018-03-06T05:03:28.144Z,25.30
2018-03-06T05:05:55.762Z,24.33
2018-03-06T05:08:23.327Z,24.80
2018-03-06T05:10:50.964Z,34.77
2018-03-06T05:13:18.617Z,25.80
2018-03-06T05:15:46.842Z,25.93
2018-03-06T05:18:14.447Z,25.97
2018-03-06T05:20:42.189Z,24.87
2018-03-06T05:23:09.908Z,25.50
2018-03-06T05:25:37.609Z,26.27
2018-03-06T05:28:05.152Z,25.53
2018-03-06T05:30:32.804Z,26.20
2018-03-06T05:33:00.365Z,25.60
2018-03-06T05:35:27.950Z,25.40
2018-03-06T05:37:55.806Z,26.67
2018-03-06T05:40:24.404Z,25.60
2018-03-06T05:42:51.990Z,26.73
2018-03-06T05:45:19.949Z,27.10
2018-03-06T05:47:47.747Z,25.73
2018-03-06T05:50:15.402Z,25.57
2018-03-06T05:52:43.109Z,26.70
2018-03-06T05:55:10.675Z,25.80
2018-03-06T05:57:38.234Z,25.80
2018-03-06T06:00:05.809Z,24.70
2018-03-06T06:02:33.476Z,51.30
2018-03-06T06:05:01.171Z,27.27
2018-03-06T06:07:28.952Z,26.20
2018-03-06T06:09:56.699Z,28.00
2018-03-06T06:12:24.409Z,26.73
2018-03-06T06:14:52.004Z,27.27
2018-03-06T06:17:20.862Z,27.13
2018-03-06T06:19:48.543Z,26.00
2018-03-06T06:22:16.334Z,27.80
2018-03-06T06:24:44.217Z,28.65
2018-03-06T06:27:12.782Z,27.53
2018-03-06T06:29:40.472Z,30.40
2018-03-06T06:32:08.167Z,29.23
2018-03-06T06:34:35.814Z,29.50
2018-03-06T06:37:03.529Z,29.10
2018-03-06T06:39:31.093Z,30.90
2018-03-06T06:41:58.762Z,29.60
2018-03-06T06:44:26.398Z,28.57
2018-03-06T06:46:53.918Z,28.87
2018-03-06T06:49:21.618Z,29.33
2018-03-06T06:51:49.509Z,29.17
2018-03-06T06:54:17.293Z,29.40
2018-03-06T06:56:44.844Z,28.95
2018-03-06T06:59:12.561Z,29.40
2018-03-06T07:01:40.457Z,31.07
2018-03-06T07:04:08.188Z,29.30
2018-03-06T07:06:36.069Z,30.60
2018-03-06T07:09:03.707Z,31.07
2018-03-06T07:11:31.448Z,29.40
2018-03-06T07:13:59.167Z,30.73
2018-03-06T07:16:26.758Z,32.37
2018-03-06T07:18:54.537Z,31.50
2018-03-06T07:21:22.205Z,31.37
2018-03-06T07:23:49.867Z,34.47
2018-03-06T07:26:17.512Z,32.67
2018-03-06T07:28:45.342Z,33.70
2018-03-06T07:31:12.884Z,36.60
2018-03-06T07:33:40.534Z,34.57
2018-03-06T07:36:08.320Z,33.70
2018-03-06T07:38:36.018Z,35.40
2018-03-06T07:41:03.783Z,35.80
2018-03-06T07:43:31.368Z,34.20
2018-03-06T07:45:58.897Z,32.37
2018-03-06T07:48:26.554Z,35.63
2018-03-06T07:50:54.315Z,37.78
2018-03-06T07:53:21.993Z,36.53
2018-03-06T07:55:49.509Z,35.73
2018-03-06T07:58:17.419Z,36.57
2018-03-06T08:00:45.151Z,39.80
2018-03-06T08:03:13.978Z,40.00
2018-03-06T08:05:41.535Z,37.10
2018-03-06T08:08:09.272Z,36.10
2018-03-06T08:10:36.866Z,38.45
2018-03-06T08:13:04.552Z,39.20
2018-03-06T08:15:32.213Z,39.87
2018-03-06T08:17:59.790Z,50.22
2018-03-06T08:20:27.542Z,62.93
2018-03-06T08:22:55.088Z,52.60
2018-03-06T08:25:22.728Z,37.07
2018-03-06T08:27:50.572Z,36.33
2018-03-06T08:30:18.584Z,33.07
2018-03-06T08:32:46.433Z,34.60
2018-03-06T08:35:14.049Z,31.77
2018-03-06T08:37:41.982Z,33.30
2018-03-06T08:40:10.229Z,32.17
2018-03-06T08:42:38.102Z,32.60
2018-03-06T08:45:05.752Z,34.20
2018-03-06T08:47:33.633Z,31.53
2018-03-06T08:50:01.345Z,31.70
2018-03-06T08:52:29.185Z,33.50
2018-03-06T08:54:56.823Z,32.53
2018-03-06T08:57:24.624Z,32.80
2018-03-06T08:59:53.248Z,32.87
2018-03-06T09:02:20.849Z,28.50
2018-03-06T09:04:49.252Z,30.37
2018-03-06T09:07:17.038Z,30.73
2018-03-06T09:09:44.793Z,31.40
2018-03-06T09:12:12.473Z,34.23
2018-03-06T09:14:40.683Z,32.35
2018-03-06T09:17:08.258Z,33.50
2018-03-06T09:19:36.108Z,37.90
2018-03-06T09:22:04.274Z,33.67
2018-03-06T09:24:32.698Z,35.83
2018-03-06T09:27:00.314Z,36.20
2018-03-06T09:29:27.859Z,37.10
2018-03-06T09:31:55.525Z,37.97
2018-03-06T09:34:23.079Z,39.10
2018-03-06T09:36:50.654Z,37.58
2018-03-06T09:39:18.286Z,38.17
2018-03-06T09:41:45.889Z,40.30
2018-03-06T09:44:13.603Z,40.30
2018-03-06T09:46:41.259Z,39.70
2018-03-06T09:49:09.625Z,40.72
2018-03-06T09:51:37.263Z,40.50
2018-03-06T09:54:04.819Z,42.63
2018-03-06T09:56:32.484Z,41.50
2018-03-06T09:59:00.173Z,42.00
2018-03-06T10:01:28.339Z,40.83
2018-03-06T10:03:55.962Z,41.90
2018-03-06T10:06:23.793Z,42.33
2018-03-06T10:08:51.342Z,42.97
2018-03-06T10:11:18.882Z,42.30
2018-03-06T10:13:47.033Z,42.40
2018-03-06T10:16:14.610Z,44.20
2018-03-06T10:18:42.202Z,42.87
2018-03-06T10:21:09.753Z,43.30
2018-03-06T10:23:37.414Z,41.00
2018-03-06T10:26:06.083Z,41.80
2018-03-06T10:28:33.830Z,41.27
2018-03-06T10:31:01.547Z,41.13
2018-03-06T10:33:29.097Z,42.87
2018-03-06T10:35:57.037Z,41.50
2018-03-06T10:38:25.412Z,42.35
2018-03-06T10:40:53.031Z,41.40
2018-03-06T10:43:20.638Z,42.17
2018-03-06T10:45:48.559Z,44.13
2018-03-06T10:48:16.372Z,41.67
2018-03-06T10:50:44.190Z,41.67
2018-03-06T10:53:11.832Z,45.33
2018-03-06T10:55:39.598Z,43.50
2018-03-06T10:58:07.163Z,42.07
2018-03-06T11:00:47.888Z,40.37
2018-03-06T11:03:22.282Z,41.50
2018-03-06T11:05:49.970Z,41.23
2018-03-06T11:08:18.371Z,38.90
2018-03-06T11:10:46.079Z,40.87
2018-03-06T11:13:13.662Z,39.30
2018-03-06T11:15:41.413Z,39.83
2018-03-06T11:18:09.393Z,41.60
2018-03-06T11:20:37.059Z,38.93
2018-03-06T11:23:04.778Z,41.00
2018-03-06T11:25:32.626Z,41.10
2018-03-06T11:28:00.284Z,42.70
2018-03-06T11:30:28.935Z,42.83
2018-03-06T11:32:56.710Z,41.83
2018-03-06T11:35:24.614Z,43.60
2018-03-06T11:37:52.364Z,42.80
2018-03-06T11:40:20.024Z,40.87
2018-03-06T11:42:47.773Z,42.90
2018-03-06T11:45:15.630Z,41.93
2018-03-06T11:47:43.244Z,41.67
2018-03-06T11:50:11.039Z,41.50
2018-03-06T11:52:38.630Z,41.33
2018-03-06T11:55:06.329Z,41.35
2018-03-06T11:57:33.907Z,44.70
2018-03-06T12:00:01.556Z,39.47
2018-03-06T12:02:29.458Z,40.55
2018-03-06T12:04:57.285Z,42.10
2018-03-06T12:07:24.988Z,43.40
2018-03-06T12:09:52.620Z,42.00
2018-03-06T12:12:20.181Z,43.07
2018-03-06T12:14:47.788Z,43.73
2018-03-06T12:17:15.443Z,42.10
2018-03-06T12:19:43.039Z,50.37
2018-03-06T12:22:10.808Z,44.90
2018-03-06T12:24:38.474Z,44.17
2018-03-06T12:27:06.171Z,41.87
2018-03-06T12:29:34.651Z,44.67
2018-03-06T12:32:02.402Z,42.50
2018-03-06T12:34:30.004Z,43.27
2018-03-06T12:36:57.718Z,44.30
2018-03-06T12:39:25.774Z,43.90
2018-03-06T12:41:53.597Z,42.50
2018-03-06T12:44:21.299Z,44.67
2018-03-06T12:46:48.854Z,45.27
2018-03-06T12:49:16.867Z,43.73
2018-03-06T12:51:44.719Z,46.20
2018-03-06T12:54:13.547Z,47.10
2018-03-06T12:56:41.439Z,44.83
2018-03-06T12:59:09.761Z,45.80
2018-03-06T13:01:37.605Z,44.37
2018-03-06T13:04:05.240Z,46.83
2018-03-06T13:06:33.253Z,46.87
2018-03-06T13:09:01.059Z,47.97
2018-03-06T13:11:28.781Z,47.53
2018-03-06T13:13:56.479Z,47.13
2018-03-06T13:16:24.168Z,48.17
2018-03-06T13:18:51.840Z,50.27
2018-03-06T13:21:19.443Z,54.10
2018-03-06T13:23:47.063Z,51.27
2018-03-06T13:26:14.636Z,54.30
2018-03-06T13:28:42.292Z,49.17
2018-03-06T13:31:10.883Z,46.50
2018-03-06T13:33:38.878Z,49.77
2018-03-06T13:36:06.590Z,48.93
2018-03-06T13:38:34.619Z,49.38
2018-03-06T13:41:02.373Z,50.08
2018-03-06T13:43:30.324Z,47.03
2018-03-06T13:45:57.927Z,47.00
2018-03-06T13:48:25.668Z,49.97
2018-03-06T13:50:54.327Z,48.77
2018-03-06T13:53:22.590Z,50.20
2018-03-06T13:55:50.283Z,50.17
2018-03-06T13:58:18.133Z,46.10
2018-03-06T14:00:45.702Z,47.83
2018-03-06T14:03:13.418Z,49.83
2018-03-06T14:05:41.340Z,49.03
2018-03-06T14:08:08.964Z,48.13
2018-03-06T14:10:37.510Z,46.40
2018-03-06T14:13:05.183Z,47.00
2018-03-06T14:15:33.267Z,48.50
2018-03-06T14:18:01.758Z,46.97
2018-03-06T14:20:29.499Z,45.47
2018-03-06T14:22:57.102Z,45.42
2018-03-06T14:25:24.781Z,46.87
2018-03-06T14:27:52.466Z,43.50
2018-03-06T14:30:20.268Z,42.47
2018-03-06T14:32:47.999Z,50.83
2018-03-06T14:35:15.708Z,56.57
2018-03-06T14:37:43.503Z,47.90
2018-03-06T14:40:11.172Z,44.47
2018-03-06T14:42:38.783Z,44.87
2018-03-06T14:45:06.429Z,40.90
2018-03-06T14:47:34.103Z,45.50
2018-03-06T14:50:02.407Z,44.20
2018-03-06T14:52:30.029Z,42.13
2018-03-06T14:54:58.020Z,40.17
2018-03-06T14:57:25.678Z,50.57
2018-03-06T14:59:53.230Z,43.10
2018-03-06T15:02:20.775Z,42.40
2018-03-06T15:04:48.384Z,43.10
2018-03-06T15:07:16.050Z,42.43
2018-03-06T15:09:43.598Z,43.10
2018-03-06T15:12:12.127Z,45.35
2018-03-06T15:14:39.689Z,47.00
2018-03-06T15:17:07.368Z,44.80
2018-03-06T15:19:35.139Z,43.57
2018-03-06T15:22:02.678Z,45.10
2018-03-06T15:24:36.252Z,48.37
2018-03-06T15:27:03.812Z,45.67
2018-03-06T15:29:31.530Z,46.47
2018-03-06T15:31:59.252Z,44.47
2018-03-06T15:34:27.070Z,43.13
2018-03-06T15:36:55.704Z,45.97
2018-03-06T15:39:23.289Z,43.78
2018-03-06T15:41:51.004Z,46.40
2018-03-06T15:44:18.684Z,44.50
2018-03-06T15:46:46.338Z,44.67
2018-03-06T15:49:14.409Z,42.70
2018-03-06T15:51:42.250Z,45.58
2018-03-06T15:54:10.013Z,42.70
2018-03-06T15:56:37.814Z,42.87
2018-03-06T15:59:05.708Z,42.00
2018-03-06T16:01:33.423Z,43.37
2018-03-06T16:04:01.709Z,43.30
2018-03-06T16:06:29.354Z,44.87
2018-03-06T16:08:56.984Z,40.53
2018-03-06T16:11:24.670Z,42.90
2018-03-06T16:13:52.288Z,41.03
2018-03-06T16:16:20.103Z,41.23
2018-03-06T16:18:47.863Z,40.50
2018-03-06T16:21:15.560Z,41.30
2018-03-06T16:23:43.529Z,40.63
2018-03-06T16:26:11.290Z,39.93
2018-03-06T16:28:39.433Z,41.47
2018-03-06T16:31:07.064Z,43.10
2018-03-06T16:33:34.711Z,38.53
2018-03-06T16:36:02.409Z,42.63
2018-03-06T16:38:30.384Z,45.60
2018-03-06T16:40:58.187Z,42.53
2018-03-06T16:43:25.884Z,42.73
2018-03-06T16:45:53.593Z,40.97
2018-03-06T16:48:21.353Z,37.87
2018-03-06T16:50:49.048Z,36.42
2018-03-06T16:53:16.724Z,35.63
2018-03-06T16:55:44.404Z,37.67
2018-03-06T16:58:13.039Z,36.80
2018-03-06T17:00:40.651Z,36.77
2018-03-06T17:03:08.258Z,35.67
2018-03-06T17:05:35.849Z,39.08
2018-03-06T17:08:03.427Z,36.43
2018-03-06T17:10:31.144Z,37.17
2018-03-06T17:12:59.117Z,36.37
2018-03-06T17:15:26.808Z,36.30
2018-03-06T17:17:55.563Z,35.37
2018-03-06T17:20:23.285Z,34.50
2018-03-06T17:22:51.053Z,34.40
2018-03-06T17:25:18.669Z,32.90
2018-03-06T17:27:46.380Z,33.80
2018-03-06T17:30:14.145Z,33.23
2018-03-06T17:32:41.799Z,37.13
2018-03-06T17:35:09.671Z,33.07
2018-03-06T17:37:37.505Z,34.43
2018-03-06T17:40:05.313Z,32.30
2018-03-06T17:42:33.185Z,34.67
2018-03-06T17:45:01.555Z,34.67
2018-03-06T17:47:29.127Z,34.17
2018-03-06T17:49:57.230Z,31.17
2018-03-06T17:52:25.173Z,32.23
2018-03-06T17:54:52.747Z,30.80
2018-03-06T17:57:20.341Z,32.30
2018-03-06T17:59:48.038Z,33.20
2018-03-06T18:02:15.928Z,31.97
2018-03-06T18:04:43.504Z,35.73
2018-03-06T18:07:11.310Z,37.77
2018-03-06T18:09:38.984Z,35.40
2018-03-06T18:12:06.680Z,39.03
2018-03-06T18:14:34.384Z,36.30
2018-03-06T18:17:02.090Z,37.67
2018-03-06T18:19:29.774Z,35.70
2018-03-06T18:21:57.594Z,33.90
2018-03-06T18:24:25.260Z,33.87
2018-03-06T18:26:52.860Z,36.20
2018-03-06T18:29:21.297Z,33.47
2018-03-06T18:31:49.040Z,36.20
2018-03-06T18:34:17.300Z,31.93
2018-03-06T18:36:44.970Z,33.40
2018-03-06T18:39:12.660Z,33.53
2018-03-06T18:41:40.430Z,32.80
2018-03-06T18:44:08.082Z,33.20
2018-03-06T18:46:35.988Z,32.67
2018-03-06T18:49:03.724Z,34.87
2018-03-06T18:51:31.511Z,33.03
2018-03-06T18:53:59.106Z,32.50
2018-03-06T18:56:26.729Z,30.43
2018-03-06T18:58:54.505Z,36.97
2018-03-06T19:04:49.429Z,36.80
2018-03-06T19:07:17.184Z,38.87
2018-03-06T19:09:44.817Z,34.23
2018-03-06T19:12:12.517Z,35.30
2018-03-06T19:14:40.173Z,33.53
2018-03-06T19:17:07.828Z,32.17
2018-03-06T19:19:35.697Z,32.93
2018-03-06T19:22:04.312Z,34.33
2018-03-06T19:24:31.970Z,34.47
2018-03-06T19:26:59.572Z,36.10
2018-03-06T19:29:27.354Z,38.40
2018-03-06T19:31:55.052Z,35.13
2018-03-06T19:34:22.702Z,38.67
2018-03-06T19:36:50.445Z,34.33
2018-03-06T19:39:18.205Z,32.67
2018-03-06T19:41:45.792Z,41.53
2018-03-06T19:44:13.640Z,38.33
2018-03-06T19:46:41.729Z,36.20
2018-03-06T19:49:09.359Z,137.37
2018-03-06T19:51:37.067Z,35.07
2018-03-06T19:54:04.759Z,34.47
2018-03-06T19:56:32.527Z,36.67
2018-03-06T19:59:00.132Z,36.07
2018-03-06T20:01:28.472Z,35.60
2018-03-06T20:03:56.169Z,34.87
2018-03-06T20:06:23.789Z,34.40
2018-03-06T20:08:51.644Z,39.17
2018-03-06T20:11:19.354Z,40.20
2018-03-06T20:13:46.955Z,44.50
2018-03-06T20:16:14.848Z,35.23
2018-03-06T20:18:42.650Z,33.57
2018-03-06T20:21:10.223Z,30.70
2018-03-06T20:23:37.948Z,32.90
2018-03-06T20:26:05.513Z,32.93
2018-03-06T20:28:33.093Z,33.90
2018-03-06T20:31:06.633Z,35.17
2018-03-06T20:33:34.193Z,31.80
2018-03-06T20:36:01.903Z,31.80
2018-03-06T20:38:35.252Z,31.87
2018-03-06T20:41:03.028Z,32.20
2018-03-06T20:43:30.949Z,31.30
2018-03-06T20:46:04.270Z,29.77
2018-03-06T20:48:31.885Z,31.90
2018-03-06T20:50:59.553Z,36.73
2018-03-06T20:53:32.828Z,33.63
2018-03-06T20:56:00.412Z,32.30
2018-03-06T20:58:28.079Z,30.37
2018-03-06T21:00:55.614Z,33.70
2018-03-06T21:03:23.363Z,33.37
2018-03-06T21:05:51.692Z,34.30
2018-03-06T21:08:19.654Z,31.80
2018-03-06T21:10:47.255Z,34.63
2018-03-06T21:13:15.153Z,31.97
2018-03-06T21:15:42.895Z,32.40
2018-03-06T21:18:10.461Z,30.90
2018-03-06T21:20:38.161Z,31.90
2018-03-06T21:23:05.728Z,32.10
2018-03-06T21:25:34.210Z,30.43
2018-03-06T21:28:01.927Z,31.77
2018-03-06T21:30:29.569Z,35.93
2018-03-06T21:32:57.104Z,32.83
2018-03-06T21:35:25.513Z,36.07
2018-03-06T21:37:53.288Z,36.00
2018-03-06T21:40:20.838Z,34.50
2018-03-06T21:42:48.423Z,34.30
2018-03-06T21:45:16.141Z,36.23
2018-03-06T21:47:43.757Z,33.37
2018-03-06T21:50:11.489Z,33.77
2018-03-06T21:52:39.173Z,35.17
2018-03-06T21:55:06.722Z,33.17
2018-03-06T21:57:34.373Z,31.70
2018-03-06T22:00:02.009Z,33.17
2018-03-06T22:02:29.582Z,35.70
2018-03-06T22:04:57.177Z,32.77
2018-03-06T22:07:24.815Z,33.47
2018-03-06T22:09:52.613Z,32.73
2018-03-06T22:12:20.287Z,31.47
2018-03-06T22:14:48.068Z,30.87
2018-03-06T22:17:15.661Z,32.93
2018-03-06T22:19:43.328Z,35.13
2018-03-06T22:22:11.127Z,34.50
2018-03-06T22:24:38.752Z,34.37
2018-03-06T22:27:06.441Z,32.60
2018-03-06T22:29:34.165Z,33.10
2018-03-06T22:32:02.605Z,34.10
2018-03-06T22:34:30.169Z,31.87
2018-03-06T22:36:57.825Z,33.60
2018-03-06T22:39:25.509Z,32.60
2018-03-06T22:41:53.042Z,31.27
2018-03-06T22:44:20.627Z,33.67
2018-03-06T22:46:48.182Z,35.13
2018-03-06T22:49:15.883Z,32.13
2018-03-06T22:51:43.430Z,33.40
2018-03-06T22:54:11.024Z,32.60
2018-03-06T22:56:38.943Z,29.23
2018-03-06T22:59:06.563Z,30.83
2018-03-06T23:01:34.138Z,31.77
2018-03-06T23:04:01.937Z,31.20
2018-03-06T23:06:29.517Z,29.97
2018-03-06T23:08:57.066Z,31.57
2018-03-06T23:11:24.812Z,32.87
2018-03-06T23:13:52.473Z,32.70
2018-03-06T23:16:20.049Z,32.03
2018-03-06T23:18:47.628Z,31.90
2018-03-06T23:21:15.251Z,30.00
2018-03-06T23:23:42.826Z,31.43
2018-03-06T23:26:10.668Z,28.70
2018-03-06T23:28:38.260Z,30.47
2018-03-06T23:31:05.942Z,31.77
2018-03-06T23:33:33.492Z,30.50
2018-03-06T23:36:01.053Z,31.47
2018-03-06T23:38:28.749Z,27.40
2018-03-06T23:40:56.308Z,28.53
2018-03-06T23:43:23.889Z,28.87
2018-03-06T23:45:51.475Z,30.53
2018-03-06T23:48:19.409Z,28.97
2018-03-06T23:50:47.067Z,31.27
2018-03-06T23:53:14.599Z,31.30
2018-03-06T23:55:42.298Z,30.97
2018-03-06T23:58:09.853Z,30.30
